Time;durP1;ratioP1;P1;durP2;ratioP2;P2;SDS_P1;SDS_P2;PMS_P1;PMS_P2;Temp;Humidity;BMP_temperature;BMP_pressure;BME280_temperature;BME280_humidity;BME280_pressure;Samples;Min_cycle;Max_cycle;Signal;HPM_P1;HPM_P2
2024/04/13 00:00:44;;;;;;;1.50;0.90;;;15.10;98.20;;;;;;5393182;26;20528;-77
2024/04/13 00:03:19;;;;;;;1.50;1.00;;;15.00;98.20;;;;;;5334070;26;20493;-80
2024/04/13 00:05:48;;;;;;;1.50;1.00;;;15.00;98.20;;;;;;5374429;26;20563;-79
2024/04/13 00:08:17;;;;;;;1.50;1.00;;;15.00;98.20;;;;;;5366874;26;20490;-79
2024/04/13 00:10:43;;;;;;;1.50;1.00;;;15.00;98.20;;;;;;5376018;26;20518;-79
2024/04/13 00:13:14;;;;;;;1.50;1.00;;;15.00;98.20;;;;;;5365590;26;20610;-80
2024/04/13 00:15:42;;;;;;;1.50;1.00;;;14.90;98.20;;;;;;5372466;26;20485;-78
2024/04/13 00:18:11;;;;;;;1.50;0.90;;;14.90;98.20;;;;;;5362724;26;20493;-79
2024/04/13 00:20:37;;;;;;;1.50;1.00;;;14.90;98.20;;;;;;5378945;26;20559;-79
2024/04/13 00:23:06;;;;;;;1.50;1.00;;;14.80;98.20;;;;;;5357998;26;20973;-79
2024/04/13 00:25:32;;;;;;;1.50;1.00;;;14.80;98.20;;;;;;5378984;26;21028;-80
2024/04/13 00:28:02;;;;;;;1.50;1.10;;;14.80;98.20;;;;;;5362820;26;20577;-80
2024/04/13 00:30:28;;;;;;;1.50;1.00;;;14.80;98.20;;;;;;5378066;26;20461;-80
2024/04/13 00:33:03;;;;;;;1.50;1.00;;;14.70;98.20;;;;;;5330354;26;20572;-80
2024/04/13 00:35:29;;;;;;;1.50;0.90;;;14.70;98.20;;;;;;5348667;26;20509;-79
2024/04/13 00:38:01;;;;;;;1.50;0.90;;;14.60;98.20;;;;;;5353753;26;21078;-80
2024/04/13 00:40:27;;;;;;;1.50;1.10;;;14.60;98.20;;;;;;5374062;26;20544;-79
2024/04/13 00:43:06;;;;;;;1.50;1.00;;;14.60;98.20;;;;;;5362482;26;20500;-80
2024/04/13 00:45:42;;;;;;;1.50;1.00;;;14.60;98.20;;;;;;5373029;26;21006;-79
2024/04/13 00:48:16;;;;;;;1.50;0.90;;;14.60;98.20;;;;;;5358470;26;20489;-79
2024/04/13 00:50:45;;;;;;;1.50;1.00;;;14.50;98.20;;;;;;5370066;26;20509;-79
2024/04/13 00:53:16;;;;;;;1.50;1.00;;;14.50;98.20;;;;;;5339148;26;20574;-79
2024/04/13 00:55:44;;;;;;;1.50;1.00;;;14.50;98.20;;;;;;5378437;26;20466;-79
2024/04/13 00:58:16;;;;;;;1.50;1.00;;;14.50;98.20;;;;;;5369236;26;20620;-79
2024/04/13 01:00:44;;;;;;;1.50;1.00;;;14.50;98.20;;;;;;5380873;26;20480;-79
2024/04/13 01:03:15;;;;;;;1.50;1.00;;;14.40;98.20;;;;;;5355287;26;20488;-79
2024/04/13 01:05:42;;;;;;;1.50;1.00;;;14.40;98.20;;;;;;5369958;26;20477;-80
2024/04/13 01:08:14;;;;;;;1.50;0.93;;;14.40;98.20;;;;;;5358755;26;20563;-80
2024/04/13 01:10:40;;;;;;;1.50;1.00;;;14.40;98.20;;;;;;5379906;26;21088;-79
2024/04/13 01:13:09;;;;;;;1.50;1.00;;;14.30;98.20;;;;;;5371183;26;20834;-79
2024/04/13 01:15:36;;;;;;;1.50;1.00;;;14.30;98.20;;;;;;5380630;26;20481;-79
2024/04/13 01:18:05;;;;;;;1.50;1.00;;;14.30;98.20;;;;;;5436673;21;20484;-78
2024/04/13 01:20:34;;;;;;;1.50;1.00;;;14.30;98.20;;;;;;5430473;26;20515;-79
2024/04/13 01:23:11;;;;;;;1.50;1.00;;;14.30;98.20;;;;;;5412738;26;20562;-80
2024/04/13 01:25:40;;;;;;;1.50;0.90;;;14.30;98.20;;;;;;5409664;26;20827;-79
2024/04/13 01:28:10;;;;;;;1.50;1.00;;;14.30;98.20;;;;;;5430523;26;21025;-79
2024/04/13 01:30:37;;;;;;;1.50;1.10;;;14.30;98.20;;;;;;5416406;26;20451;-79
2024/04/13 01:33:06;;;;;;;1.50;1.00;;;14.30;98.20;;;;;;5442235;26;20509;-79
2024/04/13 01:35:32;;;;;;;1.50;1.00;;;14.30;98.20;;;;;;5421708;26;20618;-78
2024/04/13 01:38:01;;;;;;;1.50;1.00;;;14.30;98.20;;;;;;5430230;26;20505;-79
2024/04/13 01:40:27;;;;;;;1.50;1.00;;;14.30;98.20;;;;;;5416532;26;20464;-80
2024/04/13 01:42:59;;;;;;;1.50;1.10;;;14.30;98.20;;;;;;5443567;26;20515;-80
2024/04/13 01:45:27;;;;;;;1.50;1.00;;;14.30;98.20;;;;;;5412507;26;20464;-80
2024/04/13 01:47:59;;;;;;;1.50;1.00;;;14.30;98.20;;;;;;5460484;26;20559;-80
2024/04/13 01:50:26;;;;;;;1.50;1.07;;;14.30;98.20;;;;;;5412089;26;20530;-81
2024/04/13 01:52:54;;;;;;;1.50;1.00;;;14.30;98.20;;;;;;5464367;26;20571;-79
2024/04/13 01:55:21;;;;;;;1.50;1.00;;;14.30;98.20;;;;;;5417567;26;20526;-77
2024/04/13 01:57:50;;;;;;;1.50;1.10;;;14.30;98.20;;;;;;5470462;26;20540;-81
2024/04/13 02:00:20;;;;;;;1.50;1.07;;;14.30;98.20;;;;;;5401921;26;20480;-80
2024/04/13 02:02:49;;;;;;;1.50;1.00;;;14.30;98.20;;;;;;5467193;26;21286;-80
2024/04/13 02:05:18;;;;;;;1.50;1.00;;;14.30;98.20;;;;;;5413128;26;20505;-80
2024/04/13 02:07:50;;;;;;;1.50;1.00;;;14.30;98.20;;;;;;5463250;26;20745;-80
2024/04/13 02:10:16;;;;;;;1.50;1.00;;;14.30;98.20;;;;;;5416255;26;20533;-80
2024/04/13 02:12:45;;;;;;;1.50;1.00;;;14.20;98.20;;;;;;5456611;26;20557;-80
2024/04/13 02:15:11;;;;;;;1.50;1.00;;;14.20;98.20;;;;;;5423535;26;20483;-80
2024/04/13 02:17:44;;;;;;;1.50;1.00;;;14.20;98.20;;;;;;5437783;26;20598;-80
2024/04/13 02:20:14;;;;;;;1.60;1.30;;;14.20;98.20;;;;;;5428772;26;20535;-80
2024/04/13 02:22:43;;;;;;;1.50;1.00;;;14.20;98.20;;;;;;5475653;25;20848;-80
2024/04/13 02:25:09;;;;;;;1.50;1.07;;;14.20;98.20;;;;;;5413515;26;20475;-80
2024/04/13 02:27:38;;;;;;;1.50;1.00;;;14.20;98.20;;;;;;5442987;26;20558;-80
2024/04/13 02:30:05;;;;;;;1.50;1.00;;;14.10;98.20;;;;;;5424051;26;20281;-80
2024/04/13 02:32:35;;;;;;;1.50;1.00;;;14.10;98.20;;;;;;5453211;26;21018;-78
2024/04/13 02:35:07;;;;;;;1.50;1.00;;;14.10;98.20;;;;;;5422936;26;20455;-80
2024/04/13 02:37:36;;;;;;;1.50;1.00;;;14.10;98.20;;;;;;5447712;26;20482;-79
2024/04/13 02:40:07;;;;;;;1.50;1.00;;;14.10;98.20;;;;;;5428944;26;21242;-79
2024/04/13 02:42:37;;;;;;;1.50;1.00;;;14.10;98.20;;;;;;5437655;26;20490;-79
2024/04/13 02:45:05;;;;;;;1.50;1.00;;;14.10;98.20;;;;;;5420759;26;20481;-80
2024/04/13 02:47:34;;;;;;;1.50;1.00;;;14.10;98.20;;;;;;5462497;25;20484;-80
2024/04/13 02:50:03;;;;;;;1.50;1.00;;;14.10;98.20;;;;;;5416150;26;20479;-79
2024/04/13 02:52:33;;;;;;;1.50;1.00;;;14.10;98.20;;;;;;5448719;26;20504;-79
2024/04/13 02:54:59;;;;;;;1.50;0.90;;;14.10;98.20;;;;;;5428330;26;20519;-80
2024/04/13 02:57:28;;;;;;;1.50;1.00;;;14.10;98.20;;;;;;5456853;26;20538;-80
2024/04/13 02:59:54;;;;;;;1.50;1.00;;;14.10;98.20;;;;;;5418778;26;20479;-79
2024/04/13 03:02:24;;;;;;;1.50;1.00;;;14.10;98.20;;;;;;5431109;26;20590;-80
2024/04/13 03:04:50;;;;;;;1.50;1.03;;;14.10;98.20;;;;;;5429747;26;20360;-81
2024/04/13 03:07:21;;;;;;;1.50;1.00;;;14.10;98.20;;;;;;5436792;26;20548;-78
2024/04/13 03:09:48;;;;;;;1.50;1.00;;;14.10;98.20;;;;;;5429271;26;20527;-80
2024/04/13 03:12:17;;;;;;;1.50;0.90;;;14.10;98.20;;;;;;5461200;26;20492;-80
2024/04/13 03:14:44;;;;;;;1.50;1.00;;;14.10;98.20;;;;;;5428718;26;20939;-80
2024/04/13 03:17:13;;;;;;;1.50;1.00;;;14.10;98.20;;;;;;5448346;26;20492;-80
2024/04/13 03:19:39;;;;;;;1.50;1.00;;;14.10;98.20;;;;;;5431801;26;20528;-80
2024/04/13 03:22:08;;;;;;;1.50;1.00;;;14.00;98.20;;;;;;5428950;26;20602;-80
2024/04/13 03:24:36;;;;;;;1.50;1.00;;;14.00;98.20;;;;;;5434639;26;20571;-81
2024/04/13 03:27:09;;;;;;;1.50;1.03;;;14.00;98.20;;;;;;5444996;26;20488;-81
2024/04/13 03:29:35;;;;;;;1.50;1.00;;;14.00;98.20;;;;;;5435736;26;20981;-79
2024/04/13 03:32:05;;;;;;;1.50;0.90;;;14.00;98.20;;;;;;5440117;26;20509;-79
2024/04/13 03:34:31;;;;;;;1.50;1.00;;;14.00;98.20;;;;;;5435108;26;20553;-80
2024/04/13 03:37:00;;;;;;;1.50;1.00;;;14.00;98.20;;;;;;5446963;26;20495;-79
2024/04/13 03:39:30;;;;;;;1.50;1.00;;;13.90;98.20;;;;;;5441045;26;20475;-80
2024/04/13 03:42:01;;;;;;;1.50;1.07;;;13.90;98.20;;;;;;5439187;26;20499;-79
2024/04/13 03:44:27;;;;;;;1.50;1.00;;;13.90;98.20;;;;;;5435640;26;20556;-79
2024/04/13 03:46:56;;;;;;;1.50;1.10;;;13.90;98.20;;;;;;5442113;26;20530;-80
2024/04/13 03:49:22;;;;;;;1.50;1.00;;;13.90;98.20;;;;;;5441869;26;21132;-80
2024/04/13 03:51:52;;;;;;;1.50;0.90;;;13.80;98.20;;;;;;5441985;26;20493;-80
2024/04/13 03:54:18;;;;;;;1.50;1.00;;;13.80;98.20;;;;;;5447200;26;20229;-80
2024/04/13 03:56:50;;;;;;;1.50;1.00;;;13.80;98.20;;;;;;5433016;26;20501;-80
2024/04/13 03:59:18;;;;;;;1.50;1.00;;;13.80;98.20;;;;;;5432970;26;20491;-79
2024/04/13 04:01:47;;;;;;;1.50;1.10;;;13.80;98.20;;;;;;5434133;26;20542;-80
2024/04/13 04:04:13;;;;;;;1.50;1.10;;;13.80;98.20;;;;;;5438327;26;20467;-80
2024/04/13 04:06:43;;;;;;;1.50;1.00;;;13.80;98.20;;;;;;5434916;26;21226;-80
2024/04/13 04:09:10;;;;;;;1.50;1.00;;;13.80;98.20;;;;;;5442337;26;20482;-80
2024/04/13 04:11:40;;;;;;;1.50;1.00;;;13.80;98.20;;;;;;5415695;26;20557;-80
2024/04/13 04:14:06;;;;;;;1.90;1.73;;;13.80;98.20;;;;;;5441080;26;20524;-80
2024/04/13 04:16:37;;;;;;;1.50;1.00;;;13.80;98.20;;;;;;5414499;26;20922;-80
2024/04/13 04:19:04;;;;;;;1.50;1.00;;;13.80;98.20;;;;;;5443700;26;20537;-80
2024/04/13 04:21:33;;;;;;;1.50;1.00;;;13.70;98.20;;;;;;5428978;25;20544;-80
2024/04/13 04:24:02;;;;;;;1.50;1.00;;;13.70;98.20;;;;;;5447246;26;20509;-81
2024/04/13 04:26:31;;;;;;;1.50;1.00;;;13.70;98.20;;;;;;5422736;26;20545;-80
2024/04/13 04:29:00;;;;;;;1.50;1.00;;;13.70;98.20;;;;;;5441982;26;20491;-81
2024/04/13 04:31:26;;;;;;;1.50;1.00;;;13.70;98.20;;;;;;5429298;26;21041;-81
2024/04/13 04:34:00;;;;;;;1.50;1.00;;;13.60;98.20;;;;;;5444175;26;20463;-81
2024/04/13 04:36:34;;;;;;;1.50;1.00;;;13.60;98.20;;;;;;5418177;26;20489;-81
2024/04/13 04:39:03;;;;;;;1.50;1.00;;;13.60;98.20;;;;;;5430654;26;20566;-81
2024/04/13 04:41:29;;;;;;;1.50;1.00;;;13.50;98.20;;;;;;5423904;26;20486;-81
2024/04/13 04:43:58;;;;;;;1.50;1.00;;;13.50;98.20;;;;;;5435786;26;20548;-81
2024/04/13 04:46:30;;;;;;;1.50;1.00;;;13.50;98.20;;;;;;5428225;26;20544;-81
2024/04/13 04:49:05;;;;;;;1.50;1.00;;;13.50;98.20;;;;;;5431719;26;20467;-80
2024/04/13 04:51:32;;;;;;;1.50;1.10;;;13.50;98.20;;;;;;5425910;26;20586;-81
2024/04/13 04:54:01;;;;;;;1.50;1.10;;;13.50;98.20;;;;;;5439766;26;20568;-81
2024/04/13 04:56:30;;;;;;;1.50;1.00;;;13.50;98.20;;;;;;5417770;26;20804;-81
2024/04/13 04:59:00;;;;;;;1.50;1.10;;;13.50;98.20;;;;;;5443976;26;20479;-81
2024/04/13 05:01:28;;;;;;;1.50;1.00;;;13.50;98.20;;;;;;5420807;26;20538;-80
2024/04/13 05:03:58;;;;;;;1.50;1.00;;;13.50;98.20;;;;;;5446125;26;21013;-80
2024/04/13 05:06:29;;;;;;;1.50;1.00;;;13.50;98.20;;;;;;5424741;26;20538;-81
2024/04/13 05:08:59;;;;;;;1.50;1.00;;;13.50;98.20;;;;;;5436640;26;20555;-81
2024/04/13 05:11:30;;;;;;;1.50;1.00;;;13.60;98.20;;;;;;5428582;26;20583;-81
2024/04/13 05:13:56;;;;;;;1.50;1.00;;;13.60;98.20;;;;;;5448412;26;20989;-81
2024/04/13 05:16:28;;;;;;;1.50;1.00;;;13.60;98.20;;;;;;5418380;26;20545;-83
2024/04/13 05:18:56;;;;;;;1.50;1.00;;;13.60;98.20;;;;;;5446369;26;20471;-80
2024/04/13 05:21:25;;;;;;;1.50;1.00;;;13.60;98.20;;;;;;5420619;26;20487;-81
2024/04/13 05:23:55;;;;;;;1.50;1.10;;;13.60;98.20;;;;;;5443493;26;20471;-82
2024/04/13 05:26:27;;;;;;;1.50;1.10;;;13.60;98.20;;;;;;5418427;26;20537;-81
2024/04/13 05:28:54;;;;;;;1.50;1.00;;;13.70;98.20;;;;;;5466424;26;20603;-80
2024/04/13 05:31:25;;;;;;;1.50;0.90;;;13.70;98.20;;;;;;5425733;26;20488;-81
2024/04/13 05:33:51;;;;;;;1.50;1.00;;;13.70;98.20;;;;;;5445739;26;21097;-82
2024/04/13 05:36:22;;;;;;;1.50;1.00;;;13.80;98.20;;;;;;5422946;26;20568;-81
2024/04/13 05:38:48;;;;;;;1.50;1.00;;;13.80;98.20;;;;;;5457944;26;20530;-81
2024/04/13 05:41:20;;;;;;;1.50;1.00;;;13.80;98.20;;;;;;5424512;26;20535;-81
2024/04/13 05:43:46;;;;;;;1.50;1.00;;;13.90;98.20;;;;;;5452797;26;20482;-81
2024/04/13 05:46:15;;;;;;;1.50;1.00;;;14.00;98.20;;;;;;5429659;26;20486;-81
2024/04/13 05:48:44;;;;;;;1.50;1.10;;;14.00;98.20;;;;;;5464177;26;20467;-82
2024/04/13 05:51:16;;;;;;;1.50;1.00;;;14.10;98.20;;;;;;5417309;26;20592;-82
2024/04/13 05:53:43;;;;;;;1.50;1.00;;;14.20;98.20;;;;;;5455342;26;20515;-82
2024/04/13 05:56:12;;;;;;;1.50;1.00;;;14.30;98.20;;;;;;5432070;26;20502;-82
2024/04/13 05:58:41;;;;;;;1.50;1.10;;;14.40;98.20;;;;;;5462165;26;20478;-82
2024/04/13 06:01:10;;;;;;;1.50;1.00;;;14.60;98.20;;;;;;5418579;26;20971;-82
2024/04/13 06:03:39;;;;;;;1.50;1.00;;;14.80;98.20;;;;;;5459855;26;20471;-82
2024/04/13 06:06:05;;;;;;;1.50;1.00;;;14.90;98.20;;;;;;5423677;26;20464;-82
2024/04/13 06:08:36;;;;;;;1.50;0.97;;;15.10;98.20;;;;;;5461624;26;20475;-83
2024/04/13 06:11:03;;;;;;;1.50;1.10;;;15.30;98.20;;;;;;5420312;26;20474;-82
2024/04/13 06:13:31;;;;;;;1.50;1.00;;;15.40;98.20;;;;;;5458044;26;20527;-82
2024/04/13 06:16:05;;;;;;;1.50;1.00;;;15.60;98.20;;;;;;5418658;26;20517;-82
2024/04/13 06:18:34;;;;;;;1.50;0.90;;;15.70;98.20;;;;;;5477269;26;20532;-82
2024/04/13 06:21:02;;;;;;;1.50;1.00;;;15.90;98.20;;;;;;5458669;26;20560;-82
2024/04/13 06:23:33;;;;;;;1.50;1.00;;;16.00;98.20;;;;;;5470055;26;21038;-83
2024/04/13 06:25:59;;;;;;;1.50;1.00;;;16.00;98.20;;;;;;5449833;26;20458;-82
2024/04/13 06:28:30;;;;;;;1.50;0.90;;;16.10;98.20;;;;;;5458767;26;20584;-85
2024/04/13 06:30:56;;;;;;;1.50;0.90;;;16.20;98.20;;;;;;5465331;26;21060;-83
2024/04/13 06:33:33;;;;;;;1.50;0.90;;;16.30;98.20;;;;;;5476659;26;20506;-84
2024/04/13 06:36:00;;;;;;;1.50;1.00;;;16.50;98.20;;;;;;5438519;26;20466;-84
2024/04/13 06:38:29;;;;;;;1.50;0.90;;;16.60;98.20;;;;;;5467286;26;20462;-84
2024/04/13 06:40:57;;;;;;;1.50;0.90;;;16.70;98.20;;;;;;5455475;26;20474;-82
2024/04/13 06:43:26;;;;;;;1.50;1.00;;;16.80;98.20;;;;;;5477254;26;20537;-82
2024/04/13 06:45:53;;;;;;;1.50;1.00;;;16.90;98.20;;;;;;5452248;26;21132;-83
2024/04/13 06:48:23;;;;;;;1.50;0.90;;;16.90;98.20;;;;;;5483255;26;20589;-82
2024/04/13 06:50:52;;;;;;;1.50;0.97;;;16.90;98.20;;;;;;5446886;26;20469;-83
2024/04/13 06:53:31;;;;;;;1.50;1.00;;;17.00;98.20;;;;;;5432806;26;20463;-82
2024/04/13 06:56:00;;;;;;;1.57;1.10;;;17.10;98.20;;;;;;5452569;26;20465;-82
2024/04/13 06:58:32;;;;;;;1.50;1.00;;;17.10;98.20;;;;;;5493113;26;20457;-83
2024/04/13 07:01:08;;;;;;;1.50;0.90;;;17.20;98.20;;;;;;5460901;26;20523;-81
2024/04/13 07:03:37;;;;;;;1.50;0.90;;;17.20;98.20;;;;;;5484972;26;20565;-82
2024/04/13 07:06:06;;;;;;;1.50;0.90;;;17.30;98.20;;;;;;5437394;26;20516;-81
2024/04/13 07:08:35;;;;;;;1.50;0.90;;;17.40;98.20;;;;;;5468334;26;20532;-81
2024/04/13 07:11:01;;;;;;;1.50;0.90;;;17.60;98.20;;;;;;5438468;26;20481;-81
2024/04/13 07:13:30;;;;;;;1.50;0.90;;;17.80;98.20;;;;;;5447648;26;20880;-82
2024/04/13 07:15:56;;;;;;;1.50;0.90;;;18.00;98.20;;;;;;5440690;26;20525;-82
2024/04/13 07:18:24;;;;;;;1.50;1.00;;;18.10;98.20;;;;;;5495432;21;20494;-79
2024/04/13 07:20:50;;;;;;;2.33;1.40;;;18.20;98.20;;;;;;5396836;26;20250;-79
2024/04/13 07:23:21;;;;;;;1.50;0.90;;;18.30;98.20;;;;;;5407167;26;20847;-79
2024/04/13 07:25:57;;;;;;;1.50;0.90;;;18.40;98.20;;;;;;5389262;26;20570;-79
2024/04/13 07:28:25;;;;;;;1.50;0.90;;;18.60;98.20;;;;;;5401561;26;20462;-78
2024/04/13 07:30:52;;;;;;;1.50;0.90;;;18.80;98.20;;;;;;5382674;26;20474;-78
2024/04/13 07:33:20;;;;;;;1.50;1.00;;;19.00;98.20;;;;;;5404834;26;20511;-78
2024/04/13 07:35:46;;;;;;;1.50;0.90;;;19.20;98.20;;;;;;5375461;26;20919;-78
2024/04/13 07:38:15;;;;;;;1.50;0.90;;;19.40;98.20;;;;;;5404122;26;20471;-78
2024/04/13 07:40:43;;;;;;;1.50;0.90;;;19.50;98.20;;;;;;5404337;26;20679;-77
2024/04/13 07:43:12;;;;;;;1.50;0.90;;;19.60;98.20;;;;;;5400695;26;20551;-78
2024/04/13 07:45:40;;;;;;;1.50;0.90;;;19.70;98.20;;;;;;5393327;26;20542;-79
2024/04/13 07:48:09;;;;;;;1.50;0.90;;;19.70;98.20;;;;;;5395813;26;20502;-78
2024/04/13 07:50:35;;;;;;;1.77;1.17;;;19.70;98.20;;;;;;5400917;26;20904;-78
2024/04/13 07:53:04;;;;;;;1.50;0.97;;;19.60;98.20;;;;;;5397950;26;20539;-79
2024/04/13 07:55:30;;;;;;;1.50;0.90;;;19.70;98.20;;;;;;5403781;26;20540;-79
2024/04/13 07:58:02;;;;;;;1.50;0.90;;;19.80;98.20;;;;;;5395215;26;21127;-79
2024/04/13 08:00:28;;;;;;;1.50;0.90;;;20.00;98.20;;;;;;5396354;26;20463;-80
2024/04/13 08:02:56;;;;;;;1.50;1.10;;;20.00;98.20;;;;;;5382123;26;20544;-80
2024/04/13 08:05:22;;;;;;;2.77;1.20;;;20.20;98.20;;;;;;5400899;26;20310;-79
2024/04/13 08:07:51;;;;;;;1.50;0.90;;;20.30;98.20;;;;;;5394640;26;20954;-79
2024/04/13 08:10:19;;;;;;;1.50;0.90;;;20.40;98.20;;;;;;5401291;26;20241;-78
2024/04/13 08:12:48;;;;;;;1.50;0.97;;;20.60;98.20;;;;;;5394680;26;20863;-78
2024/04/13 08:15:17;;;;;;;1.50;0.90;;;20.60;98.20;;;;;;5396256;26;20514;-77
2024/04/13 08:17:45;;;;;;;1.50;1.00;;;20.80;98.20;;;;;;5402422;26;20853;-77
2024/04/13 08:20:11;;;;;;;1.50;0.90;;;21.10;98.20;;;;;;5398629;26;21183;-77
2024/04/13 08:22:39;;;;;;;1.60;1.00;;;21.20;98.20;;;;;;5390729;26;20507;-77
2024/04/13 08:25:08;;;;;;;1.50;0.90;;;21.30;98.20;;;;;;5417541;26;20237;-78
2024/04/13 08:27:37;;;;;;;1.50;0.90;;;21.50;98.20;;;;;;5385789;26;21118;-78
2024/04/13 08:30:03;;;;;;;1.50;1.00;;;21.60;98.20;;;;;;5395738;26;20746;-78
2024/04/13 08:32:35;;;;;;;1.50;0.90;;;21.80;98.20;;;;;;5391288;26;20794;-78
2024/04/13 08:35:00;;;;;;;1.50;0.90;;;21.90;98.20;;;;;;5387327;26;20551;-80
2024/04/13 08:37:29;;;;;;;1.50;0.90;;;22.00;98.20;;;;;;5384518;26;20611;-78
2024/04/13 08:39:55;;;;;;;1.50;0.90;;;22.10;98.20;;;;;;5396951;26;20241;-79
2024/04/13 08:42:30;;;;;;;1.50;0.90;;;22.00;98.20;;;;;;5407874;26;21121;-78
2024/04/13 08:44:57;;;;;;;1.50;0.90;;;22.00;98.20;;;;;;5406722;26;20249;-79
2024/04/13 08:47:27;;;;;;;1.50;0.90;;;22.20;98.20;;;;;;5394224;26;20494;-79
2024/04/13 08:49:57;;;;;;;1.50;0.87;;;22.30;98.20;;;;;;5403770;26;20531;-79
2024/04/13 08:52:27;;;;;;;1.50;0.90;;;22.40;98.20;;;;;;5390500;26;20980;-78
2024/04/13 08:54:53;;;;;;;1.50;1.00;;;22.60;98.20;;;;;;5396387;26;20628;-79
2024/04/13 08:57:25;;;;;;;1.50;0.90;;;22.80;98.20;;;;;;5399308;26;20888;-77
2024/04/13 08:59:52;;;;;;;1.50;0.90;;;22.90;98.20;;;;;;5404109;26;20234;-79
2024/04/13 09:02:24;;;;;;;1.50;0.90;;;23.00;98.20;;;;;;5404587;26;20502;-78
2024/04/13 09:04:55;;;;;;;1.43;0.80;;;23.10;98.20;;;;;;5402193;26;21557;-77
2024/04/13 09:07:24;;;;;;;1.50;0.90;;;23.20;98.20;;;;;;5399195;26;20490;-77
2024/04/13 09:09:53;;;;;;;1.50;0.90;;;23.30;98.20;;;;;;5403188;26;20536;-76
2024/04/13 09:12:22;;;;;;;1.50;0.90;;;23.40;98.20;;;;;;5401425;26;20584;-78
2024/04/13 09:14:48;;;;;;;1.50;0.90;;;23.50;98.20;;;;;;5404801;26;20579;-78
2024/04/13 09:17:17;;;;;;;1.50;0.90;;;23.70;97.40;;;;;;5399564;26;20915;-78
2024/04/13 09:19:44;;;;;;;1.47;0.90;;;23.80;97.70;;;;;;5406038;26;20694;-78
2024/04/13 09:22:16;;;;;;;1.50;0.87;;;23.90;97.40;;;;;;5383382;26;20486;-78
2024/04/13 09:24:43;;;;;;;1.43;0.80;;;24.00;96.90;;;;;;5406106;26;20459;-79
2024/04/13 09:27:17;;;;;;;1.50;0.90;;;24.10;97.70;;;;;;5390487;26;20486;-78
2024/04/13 09:29:43;;;;;;;1.50;0.80;;;24.20;97.60;;;;;;5406485;26;20471;-79
2024/04/13 09:32:22;;;;;;;1.47;0.90;;;24.30;97.50;;;;;;5400569;26;20585;-79
2024/04/13 09:34:49;;;;;;;1.50;0.80;;;24.40;97.30;;;;;;5408815;26;20583;-78
2024/04/13 09:37:20;;;;;;;1.50;0.90;;;24.50;97.00;;;;;;5396071;26;20498;-79
2024/04/13 09:39:46;;;;;;;1.50;0.83;;;24.60;94.70;;;;;;5407958;26;20647;-78
2024/04/13 09:42:17;;;;;;;1.50;0.87;;;24.70;96.10;;;;;;5397754;26;21142;-77
2024/04/13 09:44:43;;;;;;;1.40;0.80;;;24.80;95.20;;;;;;5401239;26;20448;-77
2024/04/13 09:47:12;;;;;;;1.50;0.80;;;25.00;93.50;;;;;;5394184;26;20537;-77
2024/04/13 09:49:37;;;;;;;1.50;0.90;;;25.00;93.80;;;;;;5403538;26;20871;-77
2024/04/13 09:52:07;;;;;;;1.43;0.80;;;25.00;93.00;;;;;;5410799;26;20491;-77
2024/04/13 09:54:37;;;;;;;1.50;0.90;;;25.00;93.40;;;;;;5418354;26;20783;-79
2024/04/13 09:57:06;;;;;;;1.50;0.80;;;25.10;93.00;;;;;;5397067;26;21060;-77
2024/04/13 09:59:35;;;;;;;1.53;1.03;;;25.20;93.40;;;;;;5405576;26;20555;-78
2024/04/13 10:02:04;;;;;;;1.50;0.90;;;25.40;93.90;;;;;;5412329;26;21206;-78
2024/04/13 10:04:30;;;;;;;1.47;0.90;;;25.40;91.90;;;;;;5413642;26;20513;-78
2024/04/13 10:07:00;;;;;;;1.47;0.80;;;25.50;92.30;;;;;;5397318;26;20498;-78
2024/04/13 10:09:28;;;;;;;1.50;0.87;;;25.60;91.50;;;;;;5406866;26;20496;-78
2024/04/13 10:12:00;;;;;;;1.50;0.80;;;25.70;91.70;;;;;;5390282;26;20541;-77
2024/04/13 10:14:27;;;;;;;1.50;0.87;;;25.80;90.50;;;;;;5405806;26;20467;-78
2024/04/13 10:17:01;;;;;;;1.43;0.80;;;25.80;90.30;;;;;;5396208;26;20547;-77
2024/04/13 10:19:28;;;;;;;1.50;0.80;;;25.80;90.70;;;;;;5403676;26;20479;-78
2024/04/13 11:22:36;;;;;;;1.50;0.80;;;27.90;84.80;;;;;;5856510;21;20499;-82
2024/04/13 11:25:05;;;;;;;1.50;0.90;;;28.00;84.80;;;;;;5314598;26;20839;-83
2024/04/13 11:27:34;;;;;;;1.47;0.80;;;28.00;84.20;;;;;;5324478;26;20497;-84
2024/04/13 11:30:14;;;;;;;1.50;0.80;;;28.00;84.10;;;;;;5302672;26;20495;-83
2024/04/13 11:32:43;;;;;;;1.87;1.43;;;27.80;83.70;;;;;;5296864;26;20562;-83
2024/04/13 11:35:20;;;;;;;1.50;0.80;;;27.80;83.90;;;;;;5301283;26;20532;-82
2024/04/13 11:38:01;;;;;;;1.50;0.90;;;27.70;84.00;;;;;;5300201;26;20498;-83
2024/04/13 11:40:30;;;;;;;1.47;0.80;;;27.60;83.90;;;;;;5325911;26;20605;-81
2024/04/13 11:42:58;;;;;;;1.50;0.90;;;27.60;84.30;;;;;;5326985;26;23351;-81
2024/04/13 11:45:25;;;;;;;1.50;0.80;;;27.60;83.20;;;;;;5332142;26;21158;-82
2024/04/13 11:47:55;;;;;;;1.50;0.90;;;27.70;83.60;;;;;;5327091;26;20493;-84
2024/04/13 11:50:22;;;;;;;1.47;0.80;;;27.70;83.10;;;;;;5337899;26;20854;-81
2024/04/13 11:53:00;;;;;;;1.80;1.33;;;27.80;83.90;;;;;;5328909;26;20497;-85
2024/04/13 11:55:30;;;;;;;1.47;0.80;;;27.90;82.60;;;;;;5336903;26;20608;-83
2024/04/13 11:58:08;;;;;;;1.50;0.80;;;28.00;84.10;;;;;;5327222;26;20535;-81
2024/04/13 12:00:34;;;;;;;1.50;0.90;;;28.20;82.20;;;;;;5338896;26;21227;-83
2024/04/13 12:03:08;;;;;;;1.50;0.90;;;28.20;80.60;;;;;;5323222;26;20595;-83
2024/04/13 12:11:57;;;;;;;1.50;0.80;;;28.40;81.30;;;;;;5941508;21;20490;-81
2024/04/13 12:14:54;;;;;;;1.50;0.80;;;28.20;81.00;;;;;;5316934;26;20820;-82
2024/04/13 12:17:30;;;;;;;1.50;0.80;;;28.00;81.30;;;;;;5338092;26;20528;-85
2024/04/13 12:20:08;;;;;;;1.47;0.80;;;27.80;82.80;;;;;;5364725;26;20610;-84
2024/04/13 12:22:37;;;;;;;1.50;1.00;;;27.80;82.10;;;;;;5361110;26;20491;-81
2024/04/13 12:25:12;;;;;;;1.47;0.90;;;27.80;82.40;;;;;;5371802;26;20532;-83
2024/04/13 12:27:47;;;;;;;1.47;0.80;;;27.90;81.40;;;;;;5336070;26;20545;-85
2024/04/13 12:30:13;;;;;;;1.43;0.80;;;28.00;82.00;;;;;;5367969;26;20587;-84
2024/04/13 12:32:41;;;;;;;1.47;0.80;;;28.30;80.40;;;;;;5326993;26;21019;-83
2024/04/13 12:35:17;;;;;;;1.50;0.90;;;28.30;79.60;;;;;;5367675;26;20611;-84
2024/04/13 12:37:46;;;;;;;1.50;0.80;;;28.30;81.00;;;;;;5351460;26;21073;-86
2024/04/13 12:40:19;;;;;;;1.43;0.80;;;28.40;81.00;;;;;;5372085;26;20460;-85
2024/04/13 12:43:09;;;;;;;1.80;1.20;;;28.40;79.60;;;;;;5338683;26;20882;-83
2024/04/13 12:45:36;;;;;;;1.47;0.80;;;28.30;79.70;;;;;;5369163;26;21018;-82
2024/04/13 12:48:10;;;;;;;1.43;0.90;;;28.40;80.70;;;;;;5330766;26;20481;-83
2024/04/13 12:51:00;;;;;;;1.50;0.80;;;28.50;80.00;;;;;;5363075;26;20588;-84
2024/04/13 12:53:30;;;;;;;1.50;0.80;;;28.60;79.20;;;;;;5302455;26;20540;-82
2024/04/13 12:55:56;;;;;;;1.50;0.80;;;28.70;81.20;;;;;;5358120;26;20525;-80
2024/04/13 12:58:34;;;;;;;1.50;0.90;;;28.90;79.10;;;;;;5347427;26;20956;-82
2024/04/13 13:01:20;;;;;;;1.50;0.90;;;29.00;79.20;;;;;;5349029;26;20480;-87
2024/04/13 13:04:25;;;;;;;1.47;0.80;;;29.00;77.60;;;;;;5352060;26;20598;-84
2024/04/13 13:06:56;;;;;;;1.50;0.90;;;29.00;77.70;;;;;;5358207;26;20495;-84
2024/04/13 13:10:20;;;;;;;1.47;0.90;;;29.00;77.40;;;;;;5373658;26;20511;-82
2024/04/13 13:12:49;;;;;;;1.47;0.80;;;29.00;77.90;;;;;;5343521;21;20481;-81
2024/04/13 13:15:21;;;;;;;1.47;0.80;;;28.90;77.70;;;;;;5365950;26;20553;-82
2024/04/13 13:18:33;;;;;;;1.50;0.80;;;28.90;78.10;;;;;;5355946;26;20496;-84
2024/04/13 13:21:24;;;;;;;1.47;0.80;;;29.00;77.20;;;;;;5228447;27;20566;-84
2024/04/13 13:27:27;;;;;;;1.47;0.80;;;29.20;76.60;;;;;;5051309;28;20567;-81
2024/04/13 13:29:53;;;;;;;1.43;0.80;;;29.40;76.40;;;;;;5101069;27;20582;-82
2024/04/13 13:32:24;;;;;;;1.47;0.80;;;29.30;76.30;;;;;;5293388;26;20514;-81
2024/04/13 13:35:30;;;;;;;1.47;0.80;;;29.40;76.50;;;;;;5335893;26;20526;-83
2024/04/13 13:38:20;;;;;;;1.47;0.80;;;29.30;75.20;;;;;;5331420;26;20591;-85
2024/04/13 13:40:51;;;;;;;1.43;0.80;;;29.30;76.10;;;;;;5337215;26;20577;-86
2024/04/13 13:43:20;;;;;;;1.47;0.90;;;29.40;76.80;;;;;;5339167;26;20585;-80
2024/04/13 13:46:22;;;;;;;1.50;0.80;;;29.40;75.10;;;;;;5349392;26;20522;-83
2024/04/13 13:48:56;;;;;;;1.47;0.80;;;29.40;76.20;;;;;;5327902;26;20480;-82
2024/04/13 13:51:48;;;;;;;1.50;0.80;;;29.30;76.40;;;;;;5337490;26;20924;-82
2024/04/13 13:54:22;;;;;;;1.47;0.80;;;29.30;76.20;;;;;;5344881;26;20490;-82
2024/04/13 13:56:56;;;;;;;1.47;0.90;;;29.20;76.10;;;;;;5328807;26;20569;-83
2024/04/13 13:59:30;;;;;;;1.50;0.80;;;29.10;76.30;;;;;;5345345;26;21071;-82
2024/04/13 14:02:05;;;;;;;1.47;0.80;;;29.10;76.30;;;;;;5327530;26;20560;-86
2024/04/13 14:04:37;;;;;;;1.43;0.80;;;29.20;76.90;;;;;;5342811;26;20540;-82
2024/04/13 14:07:24;;;;;;;1.80;1.47;;;29.40;75.80;;;;;;5333273;26;20547;-82
2024/04/13 14:09:53;;;;;;;1.43;0.80;;;29.50;76.00;;;;;;5337231;26;20510;-81
2024/04/13 14:12:43;;;;;;;1.43;0.80;;;29.60;76.20;;;;;;5333467;26;20489;-83
2024/04/13 14:15:13;;;;;;;1.50;0.80;;;29.50;75.00;;;;;;5319046;26;21010;-81